createdAt,value
2022-08-03T00:01:37.942Z,2.17
2022-08-03T00:04:05.885Z,2.00
2022-08-03T00:06:36.910Z,1.70
2022-08-03T00:09:05.905Z,1.70
2022-08-03T00:11:33.636Z,2.00
2022-08-03T00:14:01.317Z,2.20
2022-08-03T00:16:28.874Z,1.70
2022-08-03T00:18:56.386Z,2.10
2022-08-03T00:21:24.026Z,2.03
2022-08-03T00:23:52.945Z,1.70
2022-08-03T00:26:21.232Z,1.50
2022-08-03T00:28:49.320Z,1.97
2022-08-03T00:31:16.915Z,1.80
2022-08-03T00:33:59.971Z,2.10
2022-08-03T00:36:31.096Z,2.40
2022-08-03T00:38:58.729Z,2.20
2022-08-03T00:41:26.189Z,2.20
2022-08-03T00:43:53.681Z,1.90
2022-08-03T00:46:22.052Z,1.77
2022-08-03T00:48:54.305Z,2.37
2022-08-03T00:51:22.574Z,2.17
2022-08-03T00:53:50.656Z,2.20
2022-08-03T00:56:18.793Z,2.13
2022-08-03T00:58:46.839Z,1.97
2022-08-03T01:01:14.872Z,2.50
2022-08-03T01:03:42.499Z,2.50
2022-08-03T01:06:20.649Z,1.80
2022-08-03T01:09:00.355Z,2.17
2022-08-03T01:11:36.752Z,2.50
2022-08-03T01:14:28.132Z,1.70
2022-08-03T01:17:14.030Z,2.03
2022-08-03T01:19:44.378Z,2.13
2022-08-03T01:22:35.675Z,2.93
2022-08-03T01:25:03.452Z,2.00
2022-08-03T01:27:49.470Z,2.30
2022-08-03T01:30:17.226Z,1.93
2022-08-03T01:32:59.468Z,1.97
2022-08-03T01:35:33.064Z,2.30
2022-08-03T01:38:06.620Z,1.97
2022-08-03T01:40:36.381Z,1.90
2022-08-03T01:43:04.914Z,2.07
2022-08-03T01:45:34.185Z,2.10
2022-08-03T01:48:02.615Z,2.17
2022-08-03T01:50:31.359Z,2.07
2022-08-03T01:52:59.625Z,1.50
2022-08-03T01:55:27.480Z,2.40
2022-08-03T01:58:05.201Z,2.10
2022-08-03T02:00:34.153Z,2.40
2022-08-03T02:03:02.653Z,2.10
2022-08-03T02:05:30.834Z,2.40
2022-08-03T02:07:59.371Z,1.97
2022-08-03T02:10:34.540Z,2.50
2022-08-03T02:13:04.978Z,2.37
2022-08-03T02:15:33.424Z,2.60
2022-08-03T02:18:01.414Z,2.50
2022-08-03T02:20:29.392Z,4.53
2022-08-03T02:22:56.898Z,2.20
2022-08-03T02:25:24.350Z,2.30
2022-08-03T02:27:53.098Z,2.20
2022-08-03T02:30:20.775Z,2.10
2022-08-03T02:32:53.923Z,2.30
2022-08-03T02:35:23.535Z,2.53
2022-08-03T02:37:52.821Z,2.57
2022-08-03T02:40:21.778Z,3.03
2022-08-03T02:42:52.060Z,2.77
2022-08-03T02:45:20.697Z,2.10
2022-08-03T02:47:54.147Z,2.80
2022-08-03T02:50:23.531Z,2.30
2022-08-03T02:52:52.117Z,2.80
2022-08-03T02:55:20.914Z,2.73
2022-08-03T02:57:48.881Z,2.13
2022-08-03T03:00:27.326Z,2.53
2022-08-03T03:02:58.023Z,3.03
2022-08-03T03:05:52.492Z,2.57
2022-08-03T03:08:18.013Z,2.90
2022-08-03T03:10:47.210Z,2.10
2022-08-03T03:13:15.769Z,2.70
2022-08-03T03:15:45.831Z,2.40
2022-08-03T03:18:13.467Z,2.63
2022-08-03T03:20:41.934Z,2.77
2022-08-03T03:23:09.864Z,2.90
2022-08-03T03:25:38.093Z,2.20
2022-08-03T03:28:06.453Z,2.00
2022-08-03T03:30:34.157Z,2.77
2022-08-03T03:33:01.883Z,2.53
2022-08-03T03:35:29.509Z,2.50
2022-08-03T03:37:57.385Z,2.50
2022-08-03T03:40:25.118Z,2.83
2022-08-03T03:42:52.877Z,2.60
2022-08-03T03:45:21.381Z,2.53
2022-08-03T03:47:49.000Z,2.20
2022-08-03T03:50:18.526Z,2.67
2022-08-03T03:52:46.015Z,2.40
2022-08-03T03:55:16.302Z,3.30
2022-08-03T03:57:43.792Z,2.30
2022-08-03T04:00:12.590Z,3.03
2022-08-03T04:02:40.296Z,3.30
2022-08-03T04:05:08.376Z,2.23
2022-08-03T04:07:41.911Z,3.33
2022-08-03T04:10:14.373Z,3.20
2022-08-03T04:12:50.609Z,2.70
2022-08-03T04:15:21.507Z,2.53
2022-08-03T04:17:49.851Z,2.50
2022-08-03T04:20:19.548Z,2.70
2022-08-03T04:22:48.705Z,2.50
2022-08-03T04:25:17.193Z,3.67
2022-08-03T04:27:45.353Z,3.17
2022-08-03T04:30:34.149Z,3.20
2022-08-03T04:33:02.546Z,2.63
2022-08-03T04:36:00.935Z,3.07
2022-08-03T04:38:19.981Z,2.93
2022-08-03T04:40:48.592Z,2.97
2022-08-03T04:43:17.496Z,3.07
2022-08-03T04:45:47.488Z,3.10
2022-08-03T04:48:15.398Z,2.40
2022-08-03T04:50:43.602Z,2.40
2022-08-03T04:53:11.295Z,2.70
2022-08-03T04:55:38.420Z,2.80
2022-08-03T04:58:06.736Z,2.80
2022-08-03T05:00:34.307Z,3.10
2022-08-03T05:03:01.805Z,1.80
2022-08-03T05:05:48.810Z,2.40
2022-08-03T05:08:16.852Z,2.07
2022-08-03T05:10:48.413Z,2.53
2022-08-03T05:13:15.911Z,2.43
2022-08-03T05:15:43.455Z,2.30
2022-08-03T05:18:14.080Z,2.60
2022-08-03T05:20:42.318Z,2.07
2022-08-03T05:23:09.863Z,2.33
2022-08-03T05:25:37.455Z,2.40
2022-08-03T05:28:06.834Z,2.75
2022-08-03T05:30:34.772Z,2.72
2022-08-03T05:33:05.358Z,6.18
2022-08-03T05:35:57.444Z,3.30
2022-08-03T05:38:24.248Z,3.50
2022-08-03T05:41:21.923Z,2.83
2022-08-03T05:43:44.956Z,3.65
2022-08-03T05:46:18.500Z,2.40
2022-08-03T05:48:46.061Z,3.30
2022-08-03T05:51:13.659Z,5.13
2022-08-03T05:53:42.470Z,3.08
2022-08-03T05:56:15.238Z,2.58
2022-08-03T05:58:44.603Z,3.08
2022-08-03T06:01:12.519Z,3.00
2022-08-03T06:03:40.524Z,4.55
2022-08-03T06:06:08.069Z,4.30
2022-08-03T06:08:35.658Z,4.30
2022-08-03T06:11:03.317Z,2.95
2022-08-03T06:13:31.086Z,5.03
2022-08-03T06:15:58.642Z,4.05
2022-08-03T06:18:26.163Z,3.63
2022-08-03T06:20:53.973Z,2.78
2022-08-03T06:23:25.302Z,2.55
2022-08-03T06:26:10.327Z,3.88
2022-08-03T06:28:52.715Z,2.50
2022-08-03T06:31:22.881Z,2.08
2022-08-03T06:34:33.714Z,2.10
2022-08-03T06:36:38.102Z,1.92
2022-08-03T06:39:06.007Z,3.13
2022-08-03T06:41:38.068Z,1.80
2022-08-03T06:44:12.411Z,2.38
2022-08-03T06:46:40.166Z,2.28
2022-08-03T06:49:08.250Z,2.25
2022-08-03T06:52:05.344Z,2.22
2022-08-03T06:54:23.470Z,1.92
2022-08-03T06:56:51.093Z,2.53
2022-08-03T07:00:06.002Z,2.22
2022-08-03T07:02:06.122Z,2.35
2022-08-03T07:04:33.625Z,2.23
2022-08-03T07:07:00.798Z,2.67
2022-08-03T07:09:28.071Z,2.23
2022-08-03T07:11:55.688Z,2.30
2022-08-03T07:14:23.054Z,2.47
2022-08-03T07:16:50.525Z,2.10
2022-08-03T07:19:17.721Z,2.00
2022-08-03T07:21:44.926Z,2.10
2022-08-03T07:24:12.190Z,2.00
2022-08-03T07:26:39.449Z,2.30
2022-08-03T07:29:10.907Z,2.23
2022-08-03T07:31:42.561Z,2.10
2022-08-03T07:34:09.799Z,2.40
2022-08-03T07:36:37.149Z,2.17
2022-08-03T07:39:15.782Z,2.30
2022-08-03T07:41:45.361Z,2.00
2022-08-03T07:44:12.803Z,2.00
2022-08-03T07:46:40.077Z,2.23
2022-08-03T07:49:07.377Z,1.77
2022-08-03T07:51:34.849Z,2.30
2022-08-03T07:54:02.259Z,1.80
2022-08-03T07:56:30.435Z,2.00
2022-08-03T07:58:57.912Z,2.17
2022-08-03T08:01:25.347Z,2.20
2022-08-03T08:03:53.703Z,2.47
2022-08-03T08:06:21.921Z,2.10
2022-08-03T08:08:49.175Z,1.80
2022-08-03T08:11:17.061Z,2.00
2022-08-03T08:13:44.644Z,1.70
2022-08-03T08:16:12.215Z,1.70
2022-08-03T08:18:40.150Z,1.90
2022-08-03T08:21:07.411Z,1.73
2022-08-03T08:23:42.169Z,1.63
2022-08-03T08:26:10.355Z,1.67
2022-08-03T08:28:37.678Z,1.87
2022-08-03T08:31:05.050Z,1.57
2022-08-03T08:33:54.353Z,2.20
2022-08-03T08:36:20.084Z,1.83
2022-08-03T08:38:48.613Z,1.57
2022-08-03T08:41:20.307Z,1.30
2022-08-03T08:43:47.766Z,2.17
2022-08-03T08:46:22.974Z,1.37
2022-08-03T08:48:52.920Z,1.33
2022-08-03T08:51:21.653Z,1.20
2022-08-03T08:53:53.150Z,1.40
2022-08-03T08:56:22.769Z,1.47
2022-08-03T08:58:56.092Z,1.63
2022-08-03T09:01:23.640Z,1.67
2022-08-03T09:03:51.142Z,1.50
2022-08-03T09:06:18.410Z,1.27
2022-08-03T09:08:45.682Z,1.43
2022-08-03T09:11:12.922Z,1.10
2022-08-03T09:13:40.200Z,1.63
2022-08-03T09:16:16.632Z,1.40
2022-08-03T09:18:49.392Z,1.20
2022-08-03T09:21:31.078Z,1.17
2022-08-03T09:24:03.708Z,1.10
2022-08-03T09:26:34.611Z,1.37
2022-08-03T09:29:13.443Z,1.53
2022-08-03T09:31:46.715Z,1.20
2022-08-03T09:34:18.384Z,1.37
2022-08-03T09:36:47.319Z,1.20
2022-08-03T09:39:17.301Z,1.40
2022-08-03T09:42:03.622Z,1.00
2022-08-03T09:44:38.634Z,1.20
2022-08-03T09:47:06.377Z,1.13
2022-08-03T09:49:33.738Z,1.10
2022-08-03T09:52:37.746Z,1.37
2022-08-03T09:55:00.892Z,1.30
2022-08-03T09:57:29.059Z,1.17
2022-08-03T10:00:11.305Z,2.30
2022-08-03T10:02:43.268Z,1.20
2022-08-03T10:05:17.577Z,1.33
2022-08-03T10:07:50.367Z,1.13
2022-08-03T10:10:30.209Z,1.20
2022-08-03T10:13:00.379Z,1.10
2022-08-03T10:16:21.482Z,1.00
2022-08-03T10:18:14.933Z,1.07
2022-08-03T10:21:03.779Z,1.57
2022-08-03T10:23:35.605Z,1.53
2022-08-03T10:26:04.974Z,1.40
2022-08-03T10:28:41.490Z,1.53
2022-08-03T10:31:13.843Z,1.43
2022-08-03T10:33:51.351Z,1.13
2022-08-03T10:36:27.187Z,1.07
2022-08-03T10:38:56.137Z,1.30
2022-08-03T10:41:37.815Z,1.00
2022-08-03T10:44:17.714Z,1.10
2022-08-03T10:46:46.762Z,1.33
2022-08-03T10:49:31.848Z,1.70
2022-08-03T10:52:13.132Z,1.00
2022-08-03T10:54:51.758Z,0.97
2022-08-03T10:57:52.611Z,1.03
2022-08-03T11:00:28.329Z,0.93
2022-08-03T11:03:12.942Z,0.80
2022-08-03T11:05:45.257Z,1.23
2022-08-03T11:08:33.225Z,0.93
2022-08-03T11:11:23.434Z,1.15
2022-08-03T11:14:07.698Z,0.80
2022-08-03T11:16:40.741Z,1.23
2022-08-03T11:19:14.179Z,0.95
2022-08-03T11:21:50.760Z,1.10
2022-08-03T11:24:36.876Z,0.70
2022-08-03T11:27:23.141Z,0.88
2022-08-03T11:29:59.711Z,0.80
2022-08-03T11:32:38.918Z,1.20
2022-08-03T11:35:30.488Z,0.88
2022-08-03T11:38:03.558Z,0.90
2022-08-03T11:40:50.370Z,1.15
2022-08-03T11:43:32.883Z,0.98
2022-08-03T11:46:03.706Z,1.10
2022-08-03T11:48:39.689Z,1.30
2022-08-03T11:51:08.383Z,1.50
2022-08-03T11:53:42.133Z,0.80
2022-08-03T11:56:12.888Z,0.95
2022-08-03T11:59:19.156Z,0.85
2022-08-03T12:01:35.086Z,1.15
2022-08-03T12:04:06.048Z,1.02
2022-08-03T12:06:33.895Z,1.30
2022-08-03T12:09:01.422Z,0.90
2022-08-03T12:11:28.948Z,1.27
2022-08-03T12:14:45.856Z,0.82
2022-08-03T12:16:47.568Z,1.10
2022-08-03T12:19:15.138Z,1.10
2022-08-03T12:21:57.213Z,1.70
2022-08-03T12:24:26.910Z,1.00
2022-08-03T12:26:59.390Z,1.25
2022-08-03T12:29:27.510Z,0.82
2022-08-03T12:31:55.932Z,1.08
2022-08-03T12:34:23.981Z,1.08
2022-08-03T12:36:55.372Z,0.65
2022-08-03T12:39:27.055Z,0.70
2022-08-03T12:41:55.452Z,1.00
2022-08-03T12:44:36.500Z,0.88
2022-08-03T12:47:05.212Z,0.88
2022-08-03T12:49:52.613Z,0.90
2022-08-03T12:52:21.802Z,0.70
2022-08-03T12:54:56.324Z,1.50
2022-08-03T12:57:24.292Z,1.08
2022-08-03T12:59:53.143Z,1.15
2022-08-03T13:02:23.647Z,1.00
2022-08-03T13:04:52.135Z,0.85
2022-08-03T13:07:20.312Z,0.98
2022-08-03T13:09:49.471Z,1.00
2022-08-03T13:12:18.712Z,0.90
2022-08-03T13:14:47.821Z,0.80
2022-08-03T13:17:15.352Z,1.00
2022-08-03T13:19:43.748Z,0.85
2022-08-03T13:22:21.131Z,0.77
2022-08-03T13:24:50.060Z,0.70
2022-08-03T13:28:01.758Z,0.75
2022-08-03T13:30:05.995Z,0.80
2022-08-03T13:32:33.672Z,0.90
2022-08-03T13:35:01.367Z,1.13
2022-08-03T13:37:29.477Z,0.82
2022-08-03T13:40:00.390Z,0.60
2022-08-03T13:42:34.560Z,0.50
2022-08-03T13:45:02.865Z,0.60
2022-08-03T13:47:30.478Z,0.77
2022-08-03T13:50:01.646Z,0.75
2022-08-03T13:52:34.371Z,0.60
2022-08-03T13:55:02.471Z,0.70
2022-08-03T13:58:06.522Z,0.63
2022-08-03T14:00:27.455Z,0.88
2022-08-03T14:03:02.724Z,0.68
2022-08-03T14:05:31.884Z,0.52
2022-08-03T14:08:03.832Z,0.50
2022-08-03T14:10:36.334Z,1.30
2022-08-03T14:13:04.929Z,0.60
2022-08-03T14:15:37.275Z,0.50
2022-08-03T14:18:06.059Z,0.68
2022-08-03T14:20:37.424Z,0.43
2022-08-03T14:23:07.011Z,0.65
2022-08-03T14:25:50.029Z,0.50
2022-08-03T14:28:19.539Z,1.05
2022-08-03T14:30:47.220Z,0.63
2022-08-03T14:33:14.861Z,0.50
2022-08-03T14:35:42.398Z,0.85
2022-08-03T14:38:09.888Z,0.60
2022-08-03T14:40:37.413Z,0.75
2022-08-03T14:43:05.015Z,0.60
2022-08-03T14:45:32.624Z,0.50
2022-08-03T14:50:29.670Z,0.52
2022-08-03T14:50:51.417Z,0.50
2022-08-03T14:53:20.253Z,0.55
2022-08-03T14:55:50.310Z,0.43
2022-08-03T14:58:25.449Z,0.73
2022-08-03T15:00:53.742Z,0.50
2022-08-03T15:03:22.066Z,0.75
2022-08-03T15:05:50.186Z,0.55
2022-08-03T15:08:17.756Z,0.73
2022-08-03T15:10:45.720Z,0.73
2022-08-03T15:13:13.857Z,0.95
2022-08-03T15:15:41.621Z,0.60
2022-08-03T15:18:09.261Z,0.57
2022-08-03T15:20:44.468Z,0.80
2022-08-03T15:23:14.105Z,0.60
2022-08-03T15:26:29.395Z,0.63
2022-08-03T15:28:29.308Z,0.60
2022-08-03T15:30:56.841Z,1.10
2022-08-03T15:33:24.340Z,0.43
2022-08-03T15:35:52.061Z,0.60
2022-08-03T15:38:20.026Z,0.73
2022-08-03T15:40:47.639Z,0.50
2022-08-03T15:43:15.334Z,0.40
2022-08-03T15:45:42.898Z,0.55
2022-08-03T15:48:10.542Z,0.60
2022-08-03T15:50:38.094Z,0.60
2022-08-03T15:53:05.726Z,0.80
2022-08-03T15:55:33.321Z,1.63
2022-08-03T15:59:09.686Z,0.70
2022-08-03T16:00:48.550Z,0.98
2022-08-03T16:03:16.107Z,1.10
2022-08-03T16:05:43.658Z,0.82
2022-08-03T16:08:13.854Z,1.08
2022-08-03T16:10:41.646Z,0.90
2022-08-03T16:13:09.262Z,0.90
2022-08-03T16:15:38.320Z,0.82
2022-08-03T16:18:09.448Z,0.93
2022-08-03T16:20:37.068Z,1.10
2022-08-03T16:23:11.101Z,1.10
2022-08-03T16:25:39.811Z,1.02
2022-08-03T16:28:13.137Z,0.90
2022-08-03T16:30:42.662Z,1.48
2022-08-03T16:33:10.489Z,0.93
2022-08-03T16:35:38.060Z,0.90
2022-08-03T16:38:09.946Z,0.75
2022-08-03T16:40:38.028Z,1.02
2022-08-03T16:43:18.559Z,1.00
2022-08-03T16:45:47.656Z,0.75
2022-08-03T16:48:15.747Z,0.90
2022-08-03T16:50:43.475Z,0.80
2022-08-03T16:53:16.309Z,1.02
2022-08-03T16:55:53.253Z,1.02
2022-08-03T16:58:34.883Z,1.10
2022-08-03T17:01:21.135Z,1.73
2022-08-03T17:04:02.046Z,0.88
2022-08-03T17:06:34.124Z,1.17
2022-08-03T17:09:08.930Z,1.27
2022-08-03T17:11:47.121Z,1.10
2022-08-03T17:14:21.748Z,1.60
2022-08-03T17:16:52.854Z,1.05
2022-08-03T17:19:23.153Z,1.08
2022-08-03T17:22:11.111Z,1.10
2022-08-03T17:24:40.914Z,1.00
2022-08-03T17:27:23.156Z,0.88
2022-08-03T17:30:00.196Z,0.90
2022-08-03T17:32:29.539Z,1.20
2022-08-03T17:34:57.528Z,1.30
2022-08-03T17:37:27.321Z,0.80
2022-08-03T17:40:17.375Z,1.27
2022-08-03T17:42:45.880Z,0.68
2022-08-03T17:45:18.894Z,1.20
2022-08-03T17:47:57.331Z,1.20
2022-08-03T17:50:34.582Z,0.90
2022-08-03T17:53:24.075Z,2.90
2022-08-03T17:56:40.749Z,1.80
2022-08-03T17:59:08.327Z,0.82
2022-08-03T18:02:00.679Z,1.00
2022-08-03T18:04:31.004Z,0.70
2022-08-03T18:06:59.346Z,0.93
2022-08-03T18:10:04.143Z,1.25
2022-08-03T18:12:19.565Z,0.90
2022-08-03T18:14:57.290Z,2.03
2022-08-03T18:17:58.019Z,1.10
2022-08-03T18:20:33.115Z,1.00
2022-08-03T18:23:06.608Z,1.13
2022-08-03T18:25:49.090Z,1.00
2022-08-03T18:28:19.281Z,0.90
2022-08-03T18:30:54.121Z,1.00
2022-08-03T18:34:16.561Z,1.33
2022-08-03T18:36:17.987Z,1.10
2022-08-03T18:38:49.839Z,1.05
2022-08-03T18:41:31.747Z,1.50
2022-08-03T18:44:08.162Z,1.30
2022-08-03T18:46:48.050Z,1.10
2022-08-03T18:49:30.880Z,1.30
2022-08-03T18:52:13.214Z,1.43
2022-08-03T18:55:01.061Z,1.40
2022-08-03T18:57:38.804Z,1.02
2022-08-03T19:00:10.501Z,1.23
2022-08-03T19:02:42.484Z,1.30
2022-08-03T19:05:18.033Z,1.35
2022-08-03T19:07:58.345Z,1.57
2022-08-03T19:10:31.055Z,1.13
2022-08-03T19:13:03.690Z,1.70
2022-08-03T19:15:36.508Z,1.33
2022-08-03T19:18:08.791Z,1.50
2022-08-03T19:20:38.395Z,1.60
2022-08-03T19:23:06.982Z,1.60
2022-08-03T19:25:38.490Z,1.20
2022-08-03T19:28:07.242Z,1.80
2022-08-03T19:30:38.868Z,1.53
2022-08-03T19:33:08.809Z,1.53
2022-08-03T19:35:55.143Z,1.43
2022-08-03T19:38:29.144Z,2.07
2022-08-03T19:41:04.096Z,1.43
2022-08-03T19:43:57.566Z,1.20
2022-08-03T19:46:30.314Z,1.57
2022-08-03T19:49:10.432Z,1.80
2022-08-03T19:52:00.561Z,1.37
2022-08-03T19:54:35.991Z,1.50
2022-08-03T19:57:04.813Z,1.53
2022-08-03T19:59:36.799Z,1.70
2022-08-03T20:02:17.406Z,1.50
2022-08-03T20:04:53.887Z,1.80
2022-08-03T20:07:22.856Z,1.80
2022-08-03T20:09:54.450Z,1.67
2022-08-03T20:12:28.372Z,2.13
2022-08-03T20:14:59.696Z,1.40
2022-08-03T20:17:54.778Z,1.73
2022-08-03T20:20:19.659Z,1.77
2022-08-03T20:22:48.725Z,1.83
2022-08-03T20:25:20.774Z,2.17
2022-08-03T20:28:06.729Z,1.93
2022-08-03T20:30:36.095Z,2.10
2022-08-03T20:33:04.911Z,2.60
2022-08-03T20:35:33.635Z,1.73
2022-08-03T20:38:01.125Z,1.57
2022-08-03T20:40:28.677Z,1.80
2022-08-03T20:42:56.576Z,2.33
2022-08-03T20:45:59.299Z,2.43
2022-08-03T20:48:11.565Z,2.07
2022-08-03T20:50:44.123Z,1.80
2022-08-03T20:53:13.193Z,2.10
2022-08-03T20:56:01.794Z,2.00
2022-08-03T20:58:28.741Z,1.90
2022-08-03T21:00:56.248Z,2.63
2022-08-03T21:03:23.901Z,1.90
2022-08-03T21:06:09.024Z,2.37
2022-08-03T21:08:46.944Z,2.13
2022-08-03T21:11:17.712Z,2.20
2022-08-03T21:14:02.157Z,2.17
2022-08-03T21:16:30.197Z,2.50
2022-08-03T21:18:59.722Z,2.17
2022-08-03T21:21:30.195Z,2.60
2022-08-03T21:23:59.272Z,3.13
2022-08-03T21:26:27.487Z,2.60
2022-08-03T21:28:56.613Z,2.27
2022-08-03T21:31:26.236Z,2.43
2022-08-03T21:34:00.191Z,2.10
2022-08-03T21:36:28.308Z,2.03
2022-08-03T21:38:57.227Z,2.90
2022-08-03T21:41:29.297Z,2.70
2022-08-03T21:43:57.015Z,2.33
2022-08-03T21:46:24.704Z,2.40
2022-08-03T21:48:54.714Z,2.33
2022-08-03T21:51:24.564Z,3.03
2022-08-03T21:54:00.340Z,2.70
2022-08-03T21:56:35.573Z,3.20
2022-08-03T21:59:04.995Z,2.30
2022-08-03T22:01:35.630Z,2.47
2022-08-03T22:04:04.771Z,2.77
2022-08-03T22:06:35.183Z,2.17
2022-08-03T22:09:02.763Z,2.13
2022-08-03T22:11:30.407Z,2.10
2022-08-03T22:13:58.043Z,2.27
2022-08-03T22:16:25.614Z,2.00
2022-08-03T22:18:53.172Z,2.30
2022-08-03T22:21:28.033Z,3.30
2022-08-03T22:24:05.393Z,2.13
2022-08-03T22:26:35.331Z,1.80
2022-08-03T22:29:06.944Z,2.50
2022-08-03T22:31:58.668Z,1.70
2022-08-03T22:34:26.508Z,2.07
2022-08-03T22:36:57.212Z,2.00
2022-08-03T22:39:28.404Z,2.27
2022-08-03T22:41:57.206Z,2.30
2022-08-03T22:44:25.463Z,1.60
2022-08-03T22:46:53.027Z,1.70
2022-08-03T22:49:28.729Z,1.97
2022-08-03T22:51:56.676Z,2.33
2022-08-03T22:54:24.437Z,1.60
2022-08-03T22:56:52.539Z,1.80
2022-08-03T22:59:41.006Z,1.60
2022-08-03T23:02:20.097Z,1.97
2022-08-03T23:04:53.804Z,1.70
2022-08-03T23:07:23.007Z,2.00
2022-08-03T23:09:50.849Z,2.00
2022-08-03T23:12:19.455Z,2.30
2022-08-03T23:14:55.649Z,1.80
2022-08-03T23:17:24.354Z,2.63
2022-08-03T23:19:53.901Z,2.20
2022-08-03T23:22:29.652Z,1.77
2022-08-03T23:24:59.081Z,2.30
2022-08-03T23:27:27.895Z,2.23
2022-08-03T23:29:57.403Z,1.83
2022-08-03T23:32:26.476Z,1.87
2022-08-03T23:34:59.144Z,1.70
2022-08-03T23:37:26.712Z,1.50
2022-08-03T23:39:56.595Z,2.07
2022-08-03T23:42:24.011Z,1.63
2022-08-03T23:44:54.509Z,1.30
2022-08-03T23:47:22.734Z,1.80
2022-08-03T23:49:50.441Z,1.60
2022-08-03T23:52:29.427Z,2.43
2022-08-03T23:55:16.536Z,2.07
2022-08-03T23:57:56.788Z,1.90
